Airfield :
LOGIN :

Register | Disclaimer

   EN    FR    IT 

 










Legend :    VFR   Marginal VFR   IFR   Intensive IFR   Very Intensive IFR
Visi :
Ceiling :
>= 8 km
>= 3000ft
5 to 8 km
1000 to 3000 ft
1500m to 5 km
500 to 1000 ft
800 to 1500m
200 to 500 ft
< 800m
< 200 ft
Symbols :   Thunderstorms  Fog  Heavy snow  Heavy precipitations  Wind > 20 kt
SIGMETs :     Misc.  Thunderstorms  Icing  Turbulence  Mountain Waves  Volcanic Ashes






- Airport Elevation : 1249 ft


ETSN - Neuburg AB

CURRENT METAR :
  • 270605Z 22002KT 0600 FZFG FEW060 BKN180 M08/M10 Q1017 RED

EXPIRED METARs :
  • 270538Z 16002KT 2500 PRFG MIFG FEW060 BKN190 M07/M08 Q1017 YLO
  • 270520Z 18001KT 1500 PRFG MIFG FEW060 BKN190 M06/M07 Q1017 AMB
  • 270420Z 20002KT 9999 FEW060 BKN210 M06/M06 Q1018 BLU+

Expired Forecast.



MET'MAP, your aeronautical weather chart ! - Copyright ORBIFLY December 2007 - Disclaimer

ORBIFLY MET'MAP TEAM :

Programming & Development : Alexandra Zaïnal
Concept & original design : Baudouin d'Aumeries
Assistance for programming : Marc-Olivier Méhu
Technical & hardware support : Manuel Goepfert

Contact : metmap@orbifly.com




SOURCES & CREDITS :

   NOAA